Time;durP1;ratioP1;P1;durP2;ratioP2;P2;SDS_P1;SDS_P2;PMS_P1;PMS_P2;Temp;Humidity;BMP_temperature;BMP_pressure;BME280_temperature;BME280_humidity;BME280_pressure;Samples;Min_cycle;Max_cycle;Signal;HPM_P1;HPM_P2
2022/07/31 00:02:24;;;;;;;9.60;7.65;;;23.30;99.90;;;;;;5291007;28;20023;-68
2022/07/31 00:04:54;;;;;;;9.23;7.93;;;23.20;99.90;;;;;;5290884;28;20042;-68
2022/07/31 00:07:25;;;;;;;11.43;8.38;;;23.30;99.90;;;;;;5290998;28;20024;-73
2022/07/31 00:09:56;;;;;;;8.70;7.60;;;23.20;99.90;;;;;;5290807;28;20032;-69
2022/07/31 00:12:27;;;;;;;7.55;6.80;;;23.40;99.90;;;;;;5290820;28;20015;-71
2022/07/31 00:14:57;;;;;;;8.80;7.47;;;23.40;99.90;;;;;;5290815;28;20034;-72
2022/07/31 00:17:28;;;;;;;8.90;7.05;;;23.30;99.90;;;;;;5290761;28;20030;-68
2022/07/31 00:19:59;;;;;;;8.30;7.05;;;23.40;99.90;;;;;;5272414;28;20055;-68
2022/07/31 00:22:30;;;;;;;8.50;7.03;;;23.40;99.90;;;;;;5290504;28;20039;-68
2022/07/31 00:25:01;;;;;;;8.05;7.20;;;23.40;99.90;;;;;;5290606;28;20023;-68
2022/07/31 00:27:31;;;;;;;9.07;7.25;;;23.30;99.90;;;;;;5290683;28;20031;-69
2022/07/31 00:30:04;;;;;;;8.25;6.65;;;23.20;99.90;;;;;;5290486;28;20494;-69
2022/07/31 00:32:34;;;;;;;7.60;6.78;;;23.20;99.90;;;;;;5290451;28;20035;-69
2022/07/31 00:35:06;;;;;;;9.52;8.05;;;23.20;99.90;;;;;;5283268;28;20040;-69
2022/07/31 00:37:37;;;;;;;8.93;7.15;;;23.00;99.90;;;;;;5290415;28;20047;-69
2022/07/31 00:40:10;;;;;;;8.43;7.35;;;23.10;99.90;;;;;;5290341;28;20404;-69
2022/07/31 00:42:41;;;;;;;8.90;7.70;;;23.10;99.90;;;;;;5290380;28;20023;-68
2022/07/31 00:45:16;;;;;;;9.02;7.45;;;23.20;99.90;;;;;;5290555;28;20088;-70
2022/07/31 00:47:52;;;;;;;8.48;7.57;;;23.30;99.90;;;;;;5255375;28;20421;-69
2022/07/31 00:50:30;;;;;;;8.10;7.00;;;23.10;99.90;;;;;;5269118;28;20103;-69
2022/07/31 00:53:05;;;;;;;8.90;7.95;;;23.20;99.90;;;;;;5269192;28;20099;-69
2022/07/31 00:55:40;;;;;;;8.52;7.60;;;23.20;99.90;;;;;;5269607;28;20028;-69
2022/07/31 00:58:23;;;;;;;8.15;7.32;;;23.30;99.90;;;;;;5269320;28;20016;-68
2022/07/31 01:00:54;;;;;;;8.15;7.35;;;23.30;99.90;;;;;;5269085;28;20490;-69
2022/07/31 01:03:25;;;;;;;9.32;8.07;;;23.20;99.90;;;;;;5268780;28;20032;-68
2022/07/31 01:05:56;;;;;;;9.98;8.15;;;23.20;99.90;;;;;;5268819;28;20055;-69
2022/07/31 01:08:27;;;;;;;9.82;8.57;;;23.20;99.90;;;;;;5268760;28;20038;-72
2022/07/31 01:11:04;;;;;;;9.98;8.23;;;23.10;99.90;;;;;;5268629;28;20823;-68
2022/07/31 01:13:42;;;;;;;9.20;8.27;;;23.20;99.90;;;;;;5268690;28;20406;-69
2022/07/31 01:16:14;;;;;;;10.32;7.68;;;23.20;99.90;;;;;;5268762;28;20046;-68
2022/07/31 01:18:46;;;;;;;9.25;8.10;;;23.20;99.90;;;;;;5268703;28;20023;-72
2022/07/31 01:21:26;;;;;;;8.70;7.38;;;23.20;99.90;;;;;;5269098;28;20020;-68
2022/07/31 01:24:23;;;;;;;9.43;8.43;;;23.10;99.90;;;;;;5268815;28;20040;-69
2022/07/31 01:27:03;;;;;;;10.80;8.65;;;23.00;99.90;;;;;;5268701;28;20032;-69
2022/07/31 01:29:45;;;;;;;10.38;8.98;;;23.00;99.90;;;;;;5268628;28;20070;-68
2022/07/31 01:32:47;;;;;;;9.80;8.63;;;22.90;99.90;;;;;;5268386;28;20035;-72
2022/07/31 01:35:31;;;;;;;11.10;8.65;;;23.00;99.90;;;;;;5246645;28;20115;-70
2022/07/31 01:38:19;;;;;;;10.93;9.27;;;23.00;99.90;;;;;;5268432;28;20486;-68
2022/07/31 01:40:56;;;;;;;8.82;7.93;;;23.10;99.90;;;;;;5268088;28;20584;-69
2022/07/31 01:43:36;;;;;;;9.52;8.35;;;23.00;99.90;;;;;;5268257;28;20032;-68
2022/07/31 01:46:11;;;;;;;10.50;8.73;;;22.90;99.90;;;;;;5268192;28;20036;-68
2022/07/31 01:48:43;;;;;;;11.32;9.05;;;22.80;99.90;;;;;;5268231;28;20024;-69
2022/07/31 01:51:16;;;;;;;11.15;9.32;;;22.80;99.90;;;;;;5268067;28;20386;-68
2022/07/31 01:53:48;;;;;;;10.93;9.63;;;22.90;99.90;;;;;;5249691;28;20044;-68
2022/07/31 01:56:20;;;;;;;10.55;9.23;;;22.80;99.90;;;;;;5267913;28;20113;-68
2022/07/31 01:58:53;;;;;;;10.90;9.77;;;22.90;99.90;;;;;;5268028;28;20032;-69
2022/07/31 02:01:25;;;;;;;10.38;8.85;;;22.70;99.90;;;;;;5253892;28;20081;-68
2022/07/31 02:03:58;;;;;;;10.07;9.02;;;22.80;99.90;;;;;;5272451;28;20024;-68
2022/07/31 02:06:29;;;;;;;9.20;8.20;;;22.90;99.90;;;;;;5272295;28;20020;-68
2022/07/31 02:09:01;;;;;;;10.65;9.00;;;22.90;99.90;;;;;;5254260;28;20056;-68
2022/07/31 02:11:32;;;;;;;9.73;8.73;;;22.70;99.90;;;;;;5272112;28;20115;-71
2022/07/31 02:14:04;;;;;;;9.93;8.73;;;22.80;99.90;;;;;;5253899;28;20028;-69
2022/07/31 02:16:36;;;;;;;9.52;8.40;;;22.80;99.90;;;;;;5271987;28;20047;-71
2022/07/31 02:19:10;;;;;;;9.88;8.65;;;22.80;99.90;;;;;;5272004;28;20027;-69
2022/07/31 02:21:41;;;;;;;10.75;8.25;;;22.70;99.90;;;;;;5271993;28;20082;-68
2022/07/31 02:24:12;;;;;;;9.82;8.82;;;22.80;99.90;;;;;;5271735;28;20383;-68
2022/07/31 02:26:44;;;;;;;9.15;8.23;;;22.70;99.90;;;;;;5271887;28;20028;-69
2022/07/31 02:29:18;;;;;;;10.30;8.55;;;22.50;99.90;;;;;;5271935;28;20367;-68
2022/07/31 02:31:54;;;;;;;10.40;9.30;;;22.70;99.90;;;;;;5271790;28;20028;-69
2022/07/31 02:34:26;;;;;;;11.00;9.45;;;22.60;99.90;;;;;;5271872;28;20016;-69
2022/07/31 02:36:59;;;;;;;10.65;9.15;;;22.60;99.90;;;;;;5271703;28;20025;-69
2022/07/31 02:39:33;;;;;;;10.90;8.50;;;22.80;99.90;;;;;;5271623;28;20129;-68
2022/07/31 02:42:05;;;;;;;9.82;8.82;;;22.70;99.90;;;;;;5271511;28;20024;-68
2022/07/31 02:44:37;;;;;;;9.30;8.10;;;22.70;99.90;;;;;;5271462;28;20028;-68
2022/07/31 02:47:08;;;;;;;10.02;8.88;;;22.80;99.90;;;;;;5271413;28;20028;-69
2022/07/31 02:49:40;;;;;;;10.95;9.27;;;22.80;99.90;;;;;;5271433;28;20111;-69
2022/07/31 02:52:11;;;;;;;12.63;10.95;;;22.60;99.90;;;;;;5271225;28;20013;-68
2022/07/31 02:54:44;;;;;;;10.70;9.60;;;22.80;99.90;;;;;;5271230;28;20052;-69
2022/07/31 02:57:16;;;;;;;9.90;8.90;;;22.90;99.90;;;;;;5271296;28;20032;-69
2022/07/31 02:59:46;;;;;;;9.73;8.50;;;22.90;99.90;;;;;;5271271;28;20047;-68
2022/07/31 03:02:18;;;;;;;9.93;8.93;;;22.80;99.90;;;;;;5271199;28;20070;-68
2022/07/31 03:04:48;;;;;;;10.13;9.05;;;22.80;99.90;;;;;;5271091;28;20118;-69
2022/07/31 03:07:19;;;;;;;11.00;9.65;;;23.00;99.90;;;;;;5271013;28;20401;-68
2022/07/31 03:09:50;;;;;;;10.40;9.23;;;23.00;99.90;;;;;;5271001;28;20028;-69
2022/07/31 03:12:21;;;;;;;10.45;9.35;;;23.00;99.90;;;;;;5270179;28;20020;-69
2022/07/31 03:14:53;;;;;;;11.32;10.10;;;23.00;99.90;;;;;;5270961;28;20523;-74
2022/07/31 03:17:24;;;;;;;12.85;9.90;;;23.20;99.90;;;;;;5271009;28;20114;-71
2022/07/31 03:19:55;;;;;;;11.73;10.50;;;23.30;99.90;;;;;;5270765;28;20131;-70
2022/07/31 03:22:25;;;;;;;10.80;9.02;;;23.40;99.90;;;;;;5270713;28;20020;-70
2022/07/31 03:24:56;;;;;;;12.57;9.57;;;23.20;99.90;;;;;;5270671;28;20064;-69
2022/07/31 03:27:27;;;;;;;11.00;9.85;;;23.20;99.90;;;;;;5270779;28;20099;-69
2022/07/31 03:29:58;;;;;;;12.00;9.70;;;23.20;99.90;;;;;;5270689;28;20028;-69
2022/07/31 03:32:29;;;;;;;10.38;8.95;;;23.30;99.90;;;;;;5270581;28;20035;-70
2022/07/31 03:35:00;;;;;;;10.82;9.23;;;23.30;99.90;;;;;;5252279;28;20035;-69
2022/07/31 03:37:30;;;;;;;11.70;9.27;;;23.30;99.90;;;;;;5252221;28;20153;-73
2022/07/31 03:40:01;;;;;;;10.98;9.45;;;23.40;99.90;;;;;;5270263;28;20071;-68
2022/07/31 03:42:32;;;;;;;10.52;8.82;;;23.40;99.90;;;;;;5270393;28;20452;-73
2022/07/31 03:45:04;;;;;;;12.85;9.60;;;23.30;99.90;;;;;;5270241;28;20360;-69
2022/07/31 03:47:35;;;;;;;11.13;9.25;;;23.40;99.90;;;;;;5270320;28;20028;-68
2022/07/31 03:50:07;;;;;;;10.00;8.95;;;23.40;99.90;;;;;;5270359;28;20020;-71
2022/07/31 03:52:38;;;;;;;11.25;9.68;;;23.40;99.90;;;;;;5269950;28;20054;-73
2022/07/31 03:55:09;;;;;;;11.82;9.63;;;23.50;99.90;;;;;;5270320;28;20056;-70
2022/07/31 03:57:41;;;;;;;10.40;9.00;;;23.40;99.90;;;;;;5252126;28;20059;-68
2022/07/31 04:00:12;;;;;;;10.52;9.43;;;23.60;99.90;;;;;;5270280;28;20074;-70
2022/07/31 04:02:44;;;;;;;11.60;9.95;;;23.60;99.90;;;;;;5270481;28;20024;-70
2022/07/31 04:05:15;;;;;;;10.05;8.95;;;23.80;99.90;;;;;;5270199;28;20044;-70
2022/07/31 04:07:45;;;;;;;10.60;9.07;;;23.80;99.90;;;;;;5251904;28;20039;-69
2022/07/31 04:10:16;;;;;;;13.43;8.23;;;23.80;99.90;;;;;;5269906;28;20016;-69
2022/07/31 04:12:47;;;;;;;10.32;8.88;;;23.90;99.90;;;;;;5269810;28;20410;-69
2022/07/31 04:15:18;;;;;;;9.20;8.20;;;24.00;99.90;;;;;;5269805;28;20016;-71
2022/07/31 04:17:48;;;;;;;10.98;8.13;;;24.00;99.90;;;;;;5269812;28;20524;-73
2022/07/31 04:20:20;;;;;;;10.10;8.43;;;24.00;99.90;;;;;;5269659;28;20375;-72
2022/07/31 04:22:51;;;;;;;8.93;7.85;;;24.00;99.90;;;;;;5268788;28;20040;-71
2022/07/31 04:25:22;;;;;;;10.35;8.02;;;24.10;99.90;;;;;;5269285;28;20032;-72
2022/07/31 04:27:52;;;;;;;9.98;7.90;;;24.10;99.90;;;;;;5251536;28;20032;-70
2022/07/31 04:30:23;;;;;;;9.35;8.38;;;24.20;99.90;;;;;;5269517;28;20024;-75
2022/07/31 04:32:54;;;;;;;10.13;7.85;;;24.20;99.90;;;;;;5269442;28;20024;-74
2022/07/31 04:35:25;;;;;;;9.82;8.00;;;24.20;99.90;;;;;;5251137;28;20391;-73
2022/07/31 04:37:56;;;;;;;8.60;7.70;;;24.20;99.90;;;;;;5269325;28;20043;-69
2022/07/31 04:40:27;;;;;;;9.30;8.27;;;24.20;99.90;;;;;;5269150;28;20024;-73
2022/07/31 04:42:57;;;;;;;9.02;7.75;;;24.30;99.90;;;;;;5269208;28;20020;-74
2022/07/31 04:45:28;;;;;;;9.10;8.20;;;24.30;99.90;;;;;;5269157;28;20038;-71
2022/07/31 04:47:59;;;;;;;8.40;7.35;;;24.40;99.90;;;;;;5269215;28;20016;-72
2022/07/31 04:50:30;;;;;;;8.18;7.35;;;24.30;99.90;;;;;;5269172;28;20467;-69
2022/07/31 04:53:01;;;;;;;9.00;8.05;;;24.40;99.90;;;;;;5268833;28;20138;-71
2022/07/31 04:55:31;;;;;;;8.10;7.30;;;24.50;99.90;;;;;;5268962;28;20051;-69
2022/07/31 04:58:02;;;;;;;9.75;7.70;;;24.60;99.90;;;;;;5268990;28;20061;-72
2022/07/31 05:00:33;;;;;;;8.18;6.43;;;24.50;99.90;;;;;;5268895;28;20843;-69
2022/07/31 05:03:04;;;;;;;13.88;7.28;;;24.70;99.90;;;;;;5268809;28;20026;-69
2022/07/31 05:05:34;;;;;;;8.13;7.32;;;24.60;99.90;;;;;;5268824;28;20036;-68
2022/07/31 05:08:05;;;;;;;11.93;8.23;;;24.60;99.90;;;;;;5268716;28;20012;-69
2022/07/31 05:13:25;;;;;;;9.32;8.40;;;24.60;99.90;;;;;;5268669;28;20020;-69
2022/07/31 05:15:56;;;;;;;14.10;7.45;;;24.70;99.90;;;;;;5268626;28;20364;-70
2022/07/31 05:18:26;;;;;;;25.08;8.68;;;24.60;99.90;;;;;;5268426;28;20028;-70
2022/07/31 05:20:57;;;;;;;17.90;8.52;;;24.60;99.90;;;;;;5268492;28;20031;-69
2022/07/31 05:23:28;;;;;;;16.30;8.77;;;24.80;99.90;;;;;;5268522;28;20036;-69
2022/07/31 05:25:59;;;;;;;13.32;8.32;;;24.80;99.90;;;;;;5268583;28;20379;-70
2022/07/31 05:28:30;;;;;;;9.50;8.02;;;24.80;99.90;;;;;;5268464;28;20019;-69
2022/07/31 05:31:01;;;;;;;10.95;8.18;;;24.80;99.90;;;;;;5268824;28;20031;-75
2022/07/31 05:33:32;;;;;;;9.88;7.72;;;24.80;99.90;;;;;;5269390;28;20020;-72
2022/07/31 05:36:04;;;;;;;15.63;8.48;;;24.80;99.90;;;;;;5250764;28;20024;-70
2022/07/31 05:38:35;;;;;;;12.13;7.47;;;24.90;99.90;;;;;;5269006;28;20054;-71
2022/07/31 05:41:06;;;;;;;11.88;8.02;;;24.80;99.90;;;;;;5268847;28;20016;-68
2022/07/31 05:43:37;;;;;;;11.73;8.10;;;25.00;99.90;;;;;;5268888;28;20020;-69
2022/07/31 05:46:08;;;;;;;8.38;7.00;;;25.00;99.90;;;;;;5269531;28;20492;-68
2022/07/31 05:48:39;;;;;;;11.63;7.28;;;25.00;99.90;;;;;;5268869;28;20052;-72
2022/07/31 05:51:12;;;;;;;21.77;7.60;;;25.10;99.90;;;;;;5269157;28;20035;-68
2022/07/31 05:53:43;;;;;;;15.43;6.70;;;25.20;99.90;;;;;;5268638;28;20123;-75
2022/07/31 05:56:15;;;;;;;10.32;6.65;;;25.40;99.90;;;;;;5268878;28;20051;-68
2022/07/31 05:58:46;;;;;;;11.93;6.65;;;25.40;99.90;;;;;;5268980;28;20016;-70
2022/07/31 06:01:17;;;;;;;7.45;6.65;;;25.20;99.90;;;;;;5268870;28;20038;-73
2022/07/31 06:03:48;;;;;;;10.20;6.25;;;25.20;99.90;;;;;;5268822;28;20020;-76
2022/07/31 06:06:19;;;;;;;14.20;6.90;;;25.30;99.90;;;;;;5268942;28;20095;-72
2022/07/31 06:08:50;;;;;;;9.38;5.63;;;25.40;99.90;;;;;;5268895;28;20046;-75
2022/07/31 06:11:20;;;;;;;12.70;6.43;;;25.60;99.90;;;;;;5268866;28;20027;-75
2022/07/31 06:13:51;;;;;;;6.82;4.78;;;25.50;99.90;;;;;;5268817;28;20024;-68
2022/07/31 06:16:22;;;;;;;5.38;4.68;;;25.40;99.90;;;;;;5268772;28;20443;-70
2022/07/31 06:18:53;;;;;;;6.38;4.35;;;25.60;99.90;;;;;;5250760;28;20119;-69
2022/07/31 06:21:24;;;;;;;5.50;4.22;;;25.80;99.90;;;;;;5268699;28;20027;-72
2022/07/31 06:23:55;;;;;;;5.00;4.50;;;25.70;99.90;;;;;;5268545;28;20530;-69
2022/07/31 06:26:25;;;;;;;6.10;4.80;;;25.70;99.90;;;;;;5268720;28;20099;-73
2022/07/31 06:28:56;;;;;;;4.80;4.03;;;25.60;99.90;;;;;;5268653;28;20134;-70
2022/07/31 06:31:27;;;;;;;5.55;4.40;;;25.60;99.90;;;;;;5268631;28;20023;-71
2022/07/31 06:33:58;;;;;;;5.50;4.25;;;26.00;99.90;;;;;;5268594;28;20024;-71
2022/07/31 06:36:28;;;;;;;4.85;4.10;;;26.00;99.90;;;;;;5268520;28;20046;-73
2022/07/31 06:38:59;;;;;;;4.93;4.43;;;26.00;99.90;;;;;;5268476;28;20028;-70
2022/07/31 06:41:48;;;;;;;6.30;4.90;;;25.90;99.90;;;;;;5268396;28;20067;-68
2022/07/31 06:44:19;;;;;;;5.13;4.20;;;25.70;99.90;;;;;;5268462;28;20139;-71
2022/07/31 06:46:50;;;;;;;5.38;4.20;;;25.70;99.90;;;;;;5269718;28;20099;-73
2022/07/31 06:49:21;;;;;;;4.57;4.07;;;25.70;99.90;;;;;;5272390;28;20016;-74
2022/07/31 06:51:52;;;;;;;9.13;4.35;;;26.00;99.90;;;;;;5272013;28;20507;-69
2022/07/31 06:54:23;;;;;;;5.15;4.05;;;26.00;99.90;;;;;;5271780;28;20042;-75
2022/07/31 06:56:54;;;;;;;4.40;4.00;;;26.10;99.90;;;;;;5271925;28;20061;-74
2022/07/31 06:59:24;;;;;;;4.47;3.92;;;26.00;99.90;;;;;;5271958;28;20031;-71
2022/07/31 07:01:55;;;;;;;6.45;4.40;;;25.90;99.90;;;;;;5271878;28;20387;-70
2022/07/31 07:04:26;;;;;;;4.47;3.75;;;26.00;99.90;;;;;;5271778;28;20483;-70
2022/07/31 07:06:57;;;;;;;6.57;4.57;;;26.00;99.90;;;;;;5276581;28;20020;-73
2022/07/31 07:09:28;;;;;;;5.88;4.28;;;26.50;99.90;;;;;;5278027;28;20081;-75
2022/07/31 07:11:59;;;;;;;5.35;4.25;;;26.10;99.90;;;;;;5271600;28;20023;-69
2022/07/31 07:14:30;;;;;;;4.85;4.35;;;26.00;99.90;;;;;;5253526;28;20164;-71
2022/07/31 07:17:04;;;;;;;5.00;4.13;;;26.10;99.90;;;;;;5271740;28;20106;-72
2022/07/31 07:19:39;;;;;;;6.47;4.28;;;26.00;99.90;;;;;;5271809;28;20096;-72
2022/07/31 07:22:10;;;;;;;6.65;4.78;;;26.00;99.90;;;;;;5253553;28;20027;-72
2022/07/31 07:24:40;;;;;;;4.88;3.72;;;26.00;99.90;;;;;;5271663;28;20073;-71
2022/07/31 07:27:11;;;;;;;7.13;4.63;;;26.10;99.90;;;;;;5271704;28;20028;-70
2022/07/31 07:29:42;;;;;;;5.82;3.92;;;26.40;99.90;;;;;;5253395;28;20027;-74
2022/07/31 07:32:13;;;;;;;4.75;3.60;;;26.10;99.90;;;;;;5271768;28;20158;-70
2022/07/31 07:34:44;;;;;;;4.78;4.03;;;26.30;99.90;;;;;;5271361;28;20460;-73
2022/07/31 07:37:15;;;;;;;5.00;4.05;;;26.40;99.90;;;;;;5271332;28;20075;-69
2022/07/31 07:39:45;;;;;;;5.75;4.05;;;26.40;99.90;;;;;;5271291;28;20107;-74
2022/07/31 07:42:16;;;;;;;3.92;3.38;;;26.60;99.90;;;;;;5276382;28;20011;-70
2022/07/31 07:44:47;;;;;;;5.55;4.13;;;26.80;99.90;;;;;;5292497;28;20031;-71
2022/07/31 07:47:18;;;;;;;4.55;3.70;;;26.70;99.90;;;;;;5290479;27;20051;-69
2022/07/31 07:49:48;;;;;;;5.72;4.07;;;26.40;99.90;;;;;;5286706;28;20028;-74
2022/07/31 07:52:19;;;;;;;5.15;3.72;;;26.50;99.90;;;;;;5280746;28;20020;-72
2022/07/31 07:54:50;;;;;;;4.47;3.95;;;26.60;99.90;;;;;;5283927;28;20717;-73
2022/07/31 07:57:21;;;;;;;4.50;4.10;;;26.60;99.90;;;;;;5289999;28;20062;-69
2022/07/31 07:59:53;;;;;;;4.03;3.63;;;26.90;99.90;;;;;;5289347;28;20039;-74
2022/07/31 08:02:23;;;;;;;5.18;3.60;;;27.00;99.90;;;;;;5284813;28;20153;-74
2022/07/31 08:04:54;;;;;;;6.68;3.65;;;27.10;99.90;;;;;;5286273;28;20106;-69
2022/07/31 08:07:30;;;;;;;4.80;3.67;;;27.40;99.90;;;;;;5290149;28;20076;-70
2022/07/31 08:10:01;;;;;;;5.40;4.00;;;27.40;99.90;;;;;;5290613;28;20371;-70
2022/07/31 08:12:32;;;;;;;4.80;3.67;;;27.00;99.90;;;;;;5284843;28;20498;-69
2022/07/31 08:15:04;;;;;;;4.95;4.25;;;26.80;99.90;;;;;;5288689;28;20145;-72
2022/07/31 08:17:35;;;;;;;5.65;4.28;;;27.40;99.90;;;;;;5285077;28;20050;-73
2022/07/31 08:20:06;;;;;;;7.18;3.95;;;28.20;99.90;;;;;;5290078;28;20486;-70
2022/07/31 08:22:37;;;;;;;3.95;3.53;;;28.00;99.90;;;;;;5272000;28;20550;-70
2022/07/31 08:25:13;;;;;;;4.32;3.67;;;27.40;99.90;;;;;;5290791;28;20032;-70
2022/07/31 08:27:52;;;;;;;5.38;4.15;;;27.00;99.90;;;;;;5290708;28;20020;-75
2022/07/31 08:30:24;;;;;;;6.22;4.55;;;26.80;99.90;;;;;;5290372;28;20020;-70
2022/07/31 08:33:00;;;;;;;4.93;3.40;;;26.80;99.90;;;;;;5271588;28;20031;-71
2022/07/31 08:35:31;;;;;;;5.57;4.35;;;26.80;99.90;;;;;;5290227;28;20028;-73
2022/07/31 08:38:03;;;;;;;5.97;5.38;;;26.90;99.90;;;;;;5290203;28;20031;-75
2022/07/31 08:40:37;;;;;;;5.95;3.92;;;27.20;99.90;;;;;;5290416;28;20034;-74
2022/07/31 08:43:07;;;;;;;6.68;4.38;;;27.20;99.90;;;;;;5290489;28;20023;-74
2022/07/31 08:45:40;;;;;;;5.55;4.50;;;27.20;99.90;;;;;;5271604;28;20031;-71
2022/07/31 08:48:13;;;;;;;4.63;4.07;;;27.60;99.90;;;;;;5286931;28;20019;-73
2022/07/31 08:50:45;;;;;;;4.32;3.80;;;28.20;99.90;;;;;;5289694;28;20054;-74
2022/07/31 08:53:17;;;;;;;4.47;3.72;;;27.40;99.90;;;;;;5271402;28;20130;-73
2022/07/31 08:55:48;;;;;;;4.95;4.00;;;27.60;99.90;;;;;;5289689;28;20032;-75
2022/07/31 08:58:19;;;;;;;5.03;3.95;;;27.80;99.90;;;;;;5271318;28;20022;-69
2022/07/31 09:00:49;;;;;;;5.43;4.63;;;27.70;99.90;;;;;;5289217;28;20023;-72
2022/07/31 09:03:20;;;;;;;4.72;3.90;;;27.80;99.90;;;;;;5289302;28;20046;-74
2022/07/31 09:05:52;;;;;;;4.82;3.92;;;27.60;99.90;;;;;;5289439;27;20027;-70
2022/07/31 09:08:22;;;;;;;5.05;4.05;;;27.10;99.90;;;;;;5289260;28;20008;-69
2022/07/31 09:11:07;;;;;;;5.15;4.25;;;26.90;99.90;;;;;;5270562;28;20080;-69
2022/07/31 09:13:38;;;;;;;6.40;5.07;;;26.80;99.90;;;;;;5287541;28;20035;-70
2022/07/31 09:16:09;;;;;;;7.78;4.15;;;27.40;99.90;;;;;;5271147;28;20068;-69
2022/07/31 09:18:40;;;;;;;4.65;3.92;;;27.50;99.90;;;;;;5289145;28;20041;-69
2022/07/31 09:21:10;;;;;;;6.07;4.47;;;27.10;99.90;;;;;;5289164;28;20474;-70
2022/07/31 09:23:45;;;;;;;6.35;4.28;;;27.00;99.90;;;;;;5288951;28;20107;-70
2022/07/31 09:26:16;;;;;;;5.50;4.45;;;26.90;99.90;;;;;;5287228;28;20024;-68
2022/07/31 09:28:49;;;;;;;5.88;4.93;;;26.90;99.90;;;;;;5289505;28;20036;-75
2022/07/31 09:31:20;;;;;;;5.47;4.97;;;27.00;99.90;;;;;;5289772;28;20020;-72
2022/07/31 09:33:51;;;;;;;5.85;4.65;;;27.10;99.90;;;;;;5290165;28;20031;-68
2022/07/31 09:36:23;;;;;;;5.03;4.30;;;26.90;99.90;;;;;;5290309;28;20018;-69
2022/07/31 09:38:55;;;;;;;4.88;4.43;;;26.80;99.90;;;;;;5271788;28;20486;-72
2022/07/31 09:41:26;;;;;;;7.40;4.75;;;26.80;99.90;;;;;;5290077;28;20378;-73
2022/07/31 09:44:02;;;;;;;7.07;5.03;;;26.90;99.90;;;;;;5289773;28;20110;-69
2022/07/31 09:46:45;;;;;;;7.00;4.78;;;26.80;99.90;;;;;;5288539;28;20496;-69
2022/07/31 09:49:16;;;;;;;4.57;3.95;;;26.80;99.90;;;;;;5288558;28;20116;-71
2022/07/31 09:51:47;;;;;;;5.65;4.40;;;27.20;99.90;;;;;;5288970;28;20053;-70
2022/07/31 09:54:30;;;;;;;5.00;4.25;;;27.60;99.90;;;;;;5288232;28;20040;-69
2022/07/31 09:57:14;;;;;;;4.55;4.10;;;27.60;99.90;;;;;;5286028;28;20211;-75
2022/07/31 09:59:45;;;;;;;5.82;4.35;;;27.40;99.90;;;;;;5268541;28;20083;-74
2022/07/31 10:02:19;;;;;;;5.72;4.47;;;27.50;99.90;;;;;;5288342;28;20019;-75
2022/07/31 10:04:50;;;;;;;5.75;4.53;;;27.60;99.90;;;;;;5288422;28;20062;-69
2022/07/31 10:07:26;;;;;;;4.97;4.50;;;27.30;99.90;;;;;;5288562;28;20035;-69
2022/07/31 10:09:57;;;;;;;5.70;4.07;;;27.00;99.90;;;;;;5288569;28;20110;-69
2022/07/31 10:12:30;;;;;;;10.10;5.28;;;26.90;99.90;;;;;;5288500;28;20384;-69
2022/07/31 10:15:05;;;;;;;5.60;5.00;;;26.80;99.90;;;;;;5285974;28;20031;-75
2022/07/31 10:17:39;;;;;;;6.32;5.43;;;26.70;99.90;;;;;;5288689;28;20016;-69
2022/07/31 10:20:20;;;;;;;6.25;5.32;;;26.70;99.90;;;;;;5270227;28;20137;-70
2022/07/31 10:23:24;;;;;;;8.18;6.20;;;26.50;99.90;;;;;;5293118;28;20019;-74
2022/07/31 10:26:00;;;;;;;9.68;6.72;;;26.40;99.90;;;;;;5275257;28;20380;-70
2022/07/31 10:28:35;;;;;;;8.00;6.88;;;26.20;99.90;;;;;;5292021;28;20072;-75
2022/07/31 10:31:06;;;;;;;8.38;6.50;;;26.10;99.90;;;;;;5289100;28;20114;-70
2022/07/31 10:33:37;;;;;;;7.07;6.38;;;26.30;99.90;;;;;;5290546;28;20027;-75
2022/07/31 10:36:15;;;;;;;8.50;6.30;;;26.00;99.90;;;;;;5275801;28;20106;-75
2022/07/31 10:38:57;;;;;;;7.53;6.57;;;26.00;99.90;;;;;;5284492;28;20370;-69
2022/07/31 10:41:44;;;;;;;8.20;6.78;;;26.10;99.90;;;;;;5288749;28;20036;-76
2022/07/31 10:44:37;;;;;;;7.47;6.55;;;26.00;99.90;;;;;;5275315;28;20126;-70
2022/07/31 10:47:14;;;;;;;6.63;6.03;;;26.20;99.90;;;;;;5278273;28;20032;-70
2022/07/31 11:23:09;;;;;;;6.15;4.20;;;26.30;99.90;;;;;;5183429;28;20434;-69
2022/07/31 11:25:40;;;;;;;4.60;3.70;;;26.80;99.90;;;;;;5183381;28;20030;-75
2022/07/31 11:28:14;;;;;;;6.43;4.03;;;27.00;99.90;;;;;;5183373;28;20072;-73
2022/07/31 11:31:06;;;;;;;6.53;3.97;;;27.50;99.90;;;;;;5183127;28;20030;-75
2022/07/31 11:33:46;;;;;;;5.35;3.38;;;27.60;99.90;;;;;;5182866;28;20029;-69
2022/07/31 11:36:19;;;;;;;4.70;3.63;;;27.40;99.90;;;;;;5182116;28;20042;-69
2022/07/31 11:38:57;;;;;;;4.95;3.60;;;27.40;99.90;;;;;;5182043;28;20018;-69
2022/07/31 11:41:29;;;;;;;6.70;3.40;;;27.50;99.90;;;;;;5182783;28;20392;-69
2022/07/31 11:44:02;;;;;;;4.38;3.65;;;28.10;99.90;;;;;;5182674;28;20114;-68
2022/07/31 11:46:34;;;;;;;4.00;3.60;;;28.00;99.90;;;;;;5182655;28;20034;-68
2022/07/31 11:49:04;;;;;;;5.20;3.50;;;27.60;99.90;;;;;;5182701;28;20030;-69
2022/07/31 11:51:35;;;;;;;3.70;3.22;;;27.80;99.90;;;;;;5182510;28;20038;-75
2022/07/31 11:54:06;;;;;;;3.90;3.50;;;27.80;99.90;;;;;;5180850;28;20026;-77
2022/07/31 11:56:38;;;;;;;4.13;2.90;;;28.60;99.90;;;;;;5182031;28;20026;-76
2022/07/31 11:59:09;;;;;;;3.90;2.75;;;29.00;99.90;;;;;;5182433;28;20121;-76
2022/07/31 12:01:39;;;;;;;4.50;3.17;;;28.50;99.90;;;;;;5176345;28;20101;-76
2022/07/31 12:04:10;;;;;;;4.18;3.20;;;29.10;99.90;;;;;;5169113;28;20030;-70
2022/07/31 12:06:41;;;;;;;3.17;2.38;;;28.90;99.90;;;;;;5168876;28;20454;-77
2022/07/31 12:09:12;;;;;;;4.90;2.80;;;28.10;99.90;;;;;;5168833;28;20034;-76
2022/07/31 12:11:43;;;;;;;4.20;2.72;;;28.00;99.90;;;;;;5168819;28;20034;-76
2022/07/31 12:14:14;;;;;;;4.50;3.00;;;28.20;99.90;;;;;;5168843;28;20026;-77
2022/07/31 12:16:44;;;;;;;4.10;3.00;;;28.00;99.90;;;;;;5168923;28;20150;-73
2022/07/31 12:19:25;;;;;;;4.53;2.90;;;28.10;99.90;;;;;;5169004;28;20014;-70
2022/07/31 12:21:57;;;;;;;3.05;2.75;;;28.30;99.90;;;;;;5168327;28;20112;-71
2022/07/31 12:24:28;;;;;;;5.93;2.97;;;28.40;99.90;;;;;;5168811;28;20540;-69
2022/07/31 12:26:59;;;;;;;4.32;2.70;;;28.70;99.90;;;;;;5168648;28;20030;-74
2022/07/31 12:29:37;;;;;;;3.60;2.80;;;29.10;99.90;;;;;;5168628;28;20026;-69
2022/07/31 12:32:08;;;;;;;2.57;2.30;;;29.30;99.90;;;;;;5168717;28;20030;-75
2022/07/31 12:34:41;;;;;;;3.80;2.60;;;28.80;99.90;;;;;;5168337;28;20022;-76
2022/07/31 12:37:17;;;;;;;3.63;2.90;;;28.60;99.90;;;;;;5168531;28;20054;-69
2022/07/31 12:39:49;;;;;;;4.93;2.38;;;28.80;99.90;;;;;;5168450;28;20428;-69
2022/07/31 12:42:25;;;;;;;3.25;2.50;;;29.10;99.90;;;;;;5168383;28;20049;-69
2022/07/31 12:44:57;;;;;;;3.17;2.50;;;29.10;99.90;;;;;;5168223;28;20022;-72
2022/07/31 12:47:30;;;;;;;2.88;2.42;;;28.90;99.90;;;;;;5168455;28;20088;-70
2022/07/31 12:50:02;;;;;;;2.70;2.38;;;28.90;99.90;;;;;;5168286;28;20465;-76
2022/07/31 12:52:33;;;;;;;2.55;2.10;;;29.10;99.90;;;;;;5168073;28;20608;-74
2022/07/31 12:55:04;;;;;;;2.65;2.15;;;29.10;99.90;;;;;;5168180;28;20015;-69
2022/07/31 12:57:35;;;;;;;2.95;2.25;;;28.90;99.90;;;;;;5168185;28;20088;-69
2022/07/31 13:00:07;;;;;;;3.03;2.17;;;28.60;99.90;;;;;;5168083;28;20323;-69
2022/07/31 13:02:38;;;;;;;2.35;2.15;;;28.50;99.90;;;;;;5168146;28;20124;-72
2022/07/31 13:05:09;;;;;;;2.97;2.33;;;28.70;99.90;;;;;;5168159;28;20171;-69
2022/07/31 13:07:40;;;;;;;2.75;2.15;;;29.10;99.90;;;;;;5168033;28;20105;-72
2022/07/31 13:10:11;;;;;;;3.90;2.30;;;29.70;99.90;;;;;;5167794;28;20141;-70
2022/07/31 13:12:41;;;;;;;2.60;1.98;;;29.30;99.90;;;;;;5167134;28;20019;-70
2022/07/31 13:15:12;;;;;;;2.88;2.22;;;29.50;99.90;;;;;;5167288;28;20035;-69
2022/07/31 13:17:44;;;;;;;3.55;2.17;;;29.40;99.90;;;;;;5167656;28;20411;-72
2022/07/31 13:20:15;;;;;;;2.83;2.38;;;28.40;99.90;;;;;;5167564;28;20019;-69
2022/07/31 13:22:46;;;;;;;3.28;2.42;;;29.40;99.90;;;;;;5167416;28;20493;-69
2022/07/31 13:25:18;;;;;;;2.45;1.92;;;29.60;99.90;;;;;;5167517;28;20033;-69
2022/07/31 13:27:48;;;;;;;2.83;2.30;;;29.80;99.90;;;;;;5167486;28;20855;-75
2022/07/31 13:30:19;;;;;;;2.10;1.77;;;29.50;99.90;;;;;;5167345;28;20034;-69
2022/07/31 13:32:50;;;;;;;2.50;1.95;;;30.10;99.90;;;;;;5167365;28;20022;-72
2022/07/31 13:35:24;;;;;;;2.63;2.08;;;28.90;99.90;;;;;;5167423;28;20030;-75
2022/07/31 13:37:56;;;;;;;2.70;2.25;;;28.50;99.90;;;;;;5167226;28;20057;-69
2022/07/31 13:43:16;;;;;;;2.72;2.13;;;29.40;99.90;;;;;;5167484;28;20037;-69
2022/07/31 13:45:49;;;;;;;3.15;2.30;;;29.20;99.90;;;;;;5167117;28;20030;-69
2022/07/31 13:48:20;;;;;;;2.83;2.20;;;29.30;99.90;;;;;;5166955;28;20036;-69
2022/07/31 13:50:50;;;;;;;4.78;2.30;;;29.40;99.90;;;;;;5166704;28;20054;-70